createdAt,value
2019-02-10T00:01:14.991Z,95498.67
2019-02-10T00:03:46.355Z,95490.45
2019-02-10T00:06:24.484Z,95491.37
2019-02-10T00:08:50.908Z,95485.64
2019-02-10T00:11:22.177Z,95492.42
2019-02-10T00:13:53.587Z,95489.67
2019-02-10T00:16:25.344Z,95498.81
2019-02-10T00:18:56.875Z,95496.00
2019-02-10T00:21:28.515Z,95500.66
2019-02-10T00:23:59.893Z,95497.47
2019-02-10T00:26:33.246Z,95501.20
2019-02-10T00:29:04.762Z,95498.40
2019-02-10T00:31:36.263Z,95504.83
2019-02-10T00:34:07.688Z,95505.66
2019-02-10T00:36:39.272Z,95499.48
2019-02-10T00:39:10.989Z,95511.09
2019-02-10T00:41:42.764Z,95503.09
2019-02-10T00:44:14.573Z,95505.50
2019-02-10T00:46:46.173Z,95503.19
2019-02-10T00:49:17.612Z,95497.81
2019-02-10T00:51:49.032Z,95500.77
2019-02-10T00:54:20.480Z,95498.89
2019-02-10T00:56:52.005Z,95489.84
2019-02-10T00:59:23.412Z,95492.42
2019-02-10T01:01:55.120Z,95492.03
2019-02-10T01:04:26.937Z,95480.58
2019-02-10T01:06:58.808Z,95483.45
2019-02-10T01:09:30.804Z,95487.19
2019-02-10T01:12:02.507Z,95493.38
2019-02-10T01:14:34.157Z,95491.12
2019-02-10T01:17:05.508Z,95490.88
2019-02-10T01:19:36.931Z,95484.05
2019-02-10T01:22:08.931Z,95483.50
2019-02-10T01:24:40.336Z,95478.85
2019-02-10T01:27:11.971Z,95475.36
2019-02-10T01:29:43.392Z,95475.30
2019-02-10T01:32:14.684Z,95474.44
2019-02-10T01:34:46.523Z,95477.62
2019-02-10T01:37:18.015Z,95481.61
2019-02-10T01:39:49.589Z,95478.52
2019-02-10T01:42:21.187Z,95477.27
2019-02-10T01:44:52.694Z,95471.31
2019-02-10T01:47:24.492Z,95469.27
2019-02-10T01:49:56.727Z,95470.78
2019-02-10T01:52:28.002Z,95470.16
2019-02-10T01:54:59.477Z,95463.45
2019-02-10T01:57:31.081Z,95467.44
2019-02-10T02:00:02.803Z,95468.86
2019-02-10T02:02:35.618Z,95469.57
2019-02-10T02:05:08.362Z,95475.73
2019-02-10T02:07:39.923Z,95484.19
2019-02-10T02:10:12.864Z,95480.48
2019-02-10T02:12:44.254Z,95472.11
2019-02-10T02:15:16.465Z,95469.83
2019-02-10T02:17:48.103Z,95469.97
2019-02-10T02:20:19.372Z,95479.86
2019-02-10T02:22:51.020Z,95472.11
2019-02-10T02:25:23.767Z,95471.20
2019-02-10T02:27:55.392Z,95462.28
2019-02-10T02:30:26.853Z,95462.42
2019-02-10T02:32:58.112Z,95457.09
2019-02-10T02:35:29.745Z,95460.17
2019-02-10T02:38:01.484Z,95457.33
2019-02-10T02:40:33.058Z,95463.73
2019-02-10T02:43:04.846Z,95450.92
2019-02-10T02:45:36.410Z,95450.23
2019-02-10T02:48:07.973Z,95450.88
2019-02-10T02:50:39.515Z,95458.02
2019-02-10T02:53:10.955Z,95452.25
2019-02-10T02:55:42.280Z,95456.09
2019-02-10T02:58:14.047Z,95466.44
2019-02-10T03:00:45.501Z,95469.83
2019-02-10T03:03:16.872Z,95460.03
2019-02-10T03:05:48.276Z,95467.58
2019-02-10T03:08:19.541Z,95463.45
2019-02-10T03:10:50.770Z,95461.80
2019-02-10T03:13:22.143Z,95463.62
2019-02-10T03:15:53.751Z,95458.27
2019-02-10T03:18:25.092Z,95459.63
2019-02-10T03:20:56.666Z,95462.86
2019-02-10T03:23:28.122Z,95461.97
2019-02-10T03:25:59.662Z,95463.75
2019-02-10T03:28:31.292Z,95457.20
2019-02-10T03:31:02.866Z,95458.13
2019-02-10T03:33:34.376Z,95452.77
2019-02-10T03:36:06.053Z,95456.38
2019-02-10T03:38:37.554Z,95454.50
2019-02-10T03:41:08.948Z,95446.64
2019-02-10T03:43:40.559Z,95454.28
2019-02-10T03:46:12.106Z,95454.25
2019-02-10T03:48:43.438Z,95455.77
2019-02-10T03:51:14.931Z,95459.55
2019-02-10T03:53:46.244Z,95463.39
2019-02-10T03:56:17.755Z,95468.20
2019-02-10T03:58:49.085Z,95478.91
2019-02-10T04:01:20.639Z,95478.00
2019-02-10T04:03:51.928Z,95475.34
2019-02-10T04:06:23.461Z,95477.77
2019-02-10T04:08:55.045Z,95466.92
2019-02-10T04:11:26.975Z,95469.72
2019-02-10T04:13:58.593Z,95469.20
2019-02-10T04:16:30.156Z,95478.75
2019-02-10T04:19:01.442Z,95466.78
2019-02-10T04:21:34.187Z,95462.50
2019-02-10T04:24:05.906Z,95469.11
2019-02-10T04:26:37.402Z,95472.95
2019-02-10T04:29:09.074Z,95468.28
2019-02-10T04:31:40.733Z,95471.00
2019-02-10T04:34:12.242Z,95468.98
2019-02-10T04:36:43.674Z,95464.30
2019-02-10T04:39:15.017Z,95471.84
2019-02-10T04:41:46.722Z,95477.70
2019-02-10T04:44:18.375Z,95473.71
2019-02-10T04:46:49.845Z,95475.45
2019-02-10T04:49:21.583Z,95475.98
2019-02-10T04:51:53.298Z,95473.13
2019-02-10T04:54:24.682Z,95480.05
2019-02-10T04:56:56.171Z,95477.52
2019-02-10T04:59:27.816Z,95478.64
2019-02-10T05:01:59.324Z,95485.58
2019-02-10T05:04:30.920Z,95482.64
2019-02-10T05:07:02.557Z,95488.84
2019-02-10T05:09:34.102Z,95497.52
2019-02-10T05:12:05.847Z,95500.49
2019-02-10T05:14:37.545Z,95502.85
2019-02-10T05:17:09.338Z,95505.94
2019-02-10T05:19:41.175Z,95503.11
2019-02-10T05:22:13.030Z,95498.91
2019-02-10T05:24:44.604Z,95506.69
2019-02-10T05:27:16.184Z,95501.07
2019-02-10T05:29:47.720Z,95512.08
2019-02-10T05:32:19.208Z,95513.69
2019-02-10T05:34:51.791Z,95518.34
2019-02-10T05:37:23.430Z,95524.74
2019-02-10T05:39:55.120Z,95522.03
2019-02-10T05:42:26.796Z,95505.39
2019-02-10T05:44:58.462Z,95517.07
2019-02-10T05:47:30.097Z,95518.15
2019-02-10T05:50:01.720Z,95516.27
2019-02-10T05:52:33.298Z,95516.54
2019-02-10T05:55:04.892Z,95514.89
2019-02-10T05:57:36.389Z,95509.21
2019-02-10T06:00:08.209Z,95515.83
2019-02-10T06:02:39.864Z,95510.75
2019-02-10T06:05:20.287Z,95510.76
2019-02-10T06:07:51.997Z,95513.94
2019-02-10T06:10:23.253Z,95521.25
2019-02-10T06:12:54.916Z,95528.05
2019-02-10T06:15:26.216Z,95528.91
2019-02-10T06:17:57.784Z,95532.55
2019-02-10T06:20:29.501Z,95531.26
2019-02-10T06:23:00.967Z,95528.05
2019-02-10T06:25:32.198Z,95536.52
2019-02-10T06:28:03.587Z,95538.66
2019-02-10T06:30:35.133Z,95532.48
2019-02-10T06:33:06.408Z,95529.59
2019-02-10T06:35:37.984Z,95526.76
2019-02-10T06:38:09.437Z,95519.47
2019-02-10T06:40:40.885Z,95520.02
2019-02-10T06:43:12.274Z,95529.84
2019-02-10T06:45:43.547Z,95529.94
2019-02-10T06:48:14.823Z,95528.56
2019-02-10T06:50:46.382Z,95532.43
2019-02-10T06:53:17.686Z,95530.84
2019-02-10T06:55:49.306Z,95534.93
2019-02-10T06:58:20.609Z,95532.61
2019-02-10T07:01:14.293Z,95534.48
2019-02-10T07:03:59.507Z,95538.23
2019-02-10T07:06:31.068Z,95538.73
2019-02-10T07:09:02.784Z,95537.31
2019-02-10T07:11:34.629Z,95541.82
2019-02-10T07:14:14.018Z,95540.67
2019-02-10T07:17:10.331Z,95538.78
2019-02-10T07:20:33.521Z,95543.72
2019-02-10T07:23:44.238Z,95544.61
2019-02-10T07:26:18.777Z,95535.13
2019-02-10T07:29:39.983Z,95541.92
2019-02-10T07:32:22.400Z,95542.22
2019-02-10T07:35:37.069Z,95532.43
2019-02-10T07:38:38.607Z,95539.88
2019-02-10T07:42:10.749Z,95541.33
2019-02-10T07:45:28.777Z,95538.16
2019-02-10T07:48:49.480Z,95532.75
2019-02-10T07:52:04.347Z,95533.34
2019-02-10T07:55:05.396Z,95530.72
2019-02-10T07:58:25.760Z,95525.71
2019-02-10T08:01:19.455Z,95527.70
2019-02-10T08:04:33.309Z,95520.46
2019-02-10T08:07:35.701Z,95535.19
2019-02-10T08:10:53.075Z,95532.16
2019-02-10T08:13:40.780Z,95533.59
2019-02-10T08:16:36.358Z,95524.33
2019-02-10T08:19:40.465Z,95524.97
2019-02-10T08:22:51.348Z,95520.13
2019-02-10T08:25:56.612Z,95526.69
2019-02-10T08:29:16.389Z,95522.02
2019-02-10T08:32:33.403Z,95527.66
2019-02-10T08:35:54.464Z,95519.27
2019-02-10T08:38:59.941Z,95515.14
2019-02-10T08:42:02.742Z,95514.31
2019-02-10T08:44:49.652Z,95511.84
2019-02-10T08:47:55.273Z,95515.03
2019-02-10T08:51:10.199Z,95504.06
2019-02-10T08:53:44.054Z,95518.64
2019-02-10T08:56:15.676Z,95509.67
2019-02-10T08:58:47.026Z,95506.23
2019-02-10T09:01:18.267Z,95510.25
2019-02-10T09:03:49.833Z,95505.06
2019-02-10T09:06:21.222Z,95505.16
2019-02-10T09:08:52.602Z,95503.45
2019-02-10T09:11:24.120Z,95495.11
2019-02-10T09:13:55.722Z,95500.99
2019-02-10T09:16:27.334Z,95494.39
2019-02-10T09:18:59.080Z,95491.67
2019-02-10T09:21:30.952Z,95488.43
2019-02-10T09:24:02.656Z,95491.90
2019-02-10T09:26:34.276Z,95493.43
2019-02-10T09:29:05.871Z,95484.41
2019-02-10T09:31:38.540Z,95486.66
2019-02-10T09:34:11.192Z,95485.28
2019-02-10T09:36:42.938Z,95483.87
2019-02-10T09:39:14.333Z,95486.10
2019-02-10T09:41:45.650Z,95478.93
2019-02-10T09:44:16.992Z,95481.87
2019-02-10T09:46:48.952Z,95477.42
2019-02-10T09:49:20.558Z,95476.45
2019-02-10T09:51:52.096Z,95476.00
2019-02-10T09:54:23.679Z,95474.13
2019-02-10T09:56:55.058Z,95466.35
2019-02-10T09:59:26.913Z,95458.61
2019-02-10T10:01:57.962Z,95458.72
2019-02-10T10:04:29.267Z,95463.69
2019-02-10T10:07:00.697Z,95455.67
2019-02-10T10:09:33.208Z,95446.65
2019-02-10T10:12:05.265Z,95436.09
2019-02-10T10:14:36.649Z,95438.66
2019-02-10T10:17:08.112Z,95428.87
2019-02-10T10:19:39.497Z,95429.09
2019-02-10T10:22:10.827Z,95422.17
2019-02-10T10:24:50.208Z,95419.33
2019-02-10T10:27:14.856Z,95415.93
2019-02-10T10:29:46.131Z,95411.48
2019-02-10T10:32:17.299Z,95410.31
2019-02-10T10:34:48.799Z,95403.24
2019-02-10T10:37:21.102Z,95399.70
2019-02-10T10:39:52.306Z,95398.05
2019-02-10T10:42:23.739Z,95399.24
2019-02-10T10:44:54.682Z,95389.06
2019-02-10T10:47:26.257Z,95382.83
2019-02-10T10:49:57.617Z,95389.48
2019-02-10T10:52:29.087Z,95382.77
2019-02-10T10:55:00.443Z,95373.45
2019-02-10T10:57:31.996Z,95371.52
2019-02-10T11:00:03.494Z,95369.13
2019-02-10T11:02:34.847Z,95365.05
2019-02-10T11:05:06.270Z,95356.34
2019-02-10T11:07:37.519Z,95360.33
2019-02-10T11:10:09.069Z,95357.35
2019-02-10T11:12:40.637Z,95350.88
2019-02-10T11:15:12.160Z,95351.68
2019-02-10T11:17:43.419Z,95354.00
2019-02-10T11:20:15.224Z,95347.92
2019-02-10T11:22:46.542Z,95350.06
2019-02-10T11:25:17.879Z,95345.09
2019-02-10T11:27:49.265Z,95341.70
2019-02-10T11:30:20.569Z,95341.72
2019-02-10T11:32:52.203Z,95335.83
2019-02-10T11:35:23.827Z,95335.03
2019-02-10T11:37:55.226Z,95325.17
2019-02-10T11:40:26.723Z,95325.17
2019-02-10T11:42:58.036Z,95314.86
2019-02-10T11:45:29.389Z,95322.41
2019-02-10T11:48:00.677Z,95316.80
2019-02-10T11:50:31.980Z,95313.36
2019-02-10T11:53:03.239Z,95303.76
2019-02-10T11:55:34.684Z,95303.73
2019-02-10T11:58:06.531Z,95303.73
2019-02-10T12:00:37.848Z,95298.97
2019-02-10T12:03:09.049Z,95298.97
2019-02-10T12:05:40.484Z,95297.95
2019-02-10T12:08:11.583Z,95294.52
2019-02-10T12:10:42.858Z,95294.52
2019-02-10T12:13:14.405Z,95292.56
2019-02-10T12:15:45.842Z,95292.56
2019-02-10T12:18:16.846Z,95280.44
2019-02-10T12:20:51.080Z,95284.72
2019-02-10T12:23:22.486Z,95277.23
2019-02-10T12:25:53.611Z,95267.06
2019-02-10T12:28:25.025Z,95264.42
2019-02-10T12:30:55.969Z,95258.67
2019-02-10T12:33:27.304Z,95247.97
2019-02-10T12:35:58.666Z,95247.97
2019-02-10T12:38:29.680Z,95249.97
2019-02-10T12:41:01.224Z,95224.75
2019-02-10T12:43:32.412Z,95239.47
2019-02-10T12:46:03.688Z,95237.48
2019-02-10T12:48:35.160Z,95227.96
2019-02-10T12:51:06.397Z,95227.96
2019-02-10T12:53:37.235Z,95235.09
2019-02-10T12:56:08.293Z,95229.58
2019-02-10T12:58:39.315Z,95222.21
2019-02-10T13:01:10.511Z,95228.75
2019-02-10T13:03:41.817Z,95223.34
2019-02-10T13:06:13.192Z,95224.02
2019-02-10T13:08:44.522Z,95219.09
2019-02-10T13:11:15.692Z,95223.36
2019-02-10T13:13:46.808Z,95218.06
2019-02-10T13:16:17.859Z,95215.00
2019-02-10T13:18:48.888Z,95215.02
2019-02-10T13:21:20.238Z,95213.37
2019-02-10T13:23:51.494Z,95205.34
2019-02-10T13:26:22.968Z,95213.05
2019-02-10T13:28:54.147Z,95209.63
2019-02-10T13:31:25.520Z,95207.63
2019-02-10T13:33:56.989Z,95205.36
2019-02-10T13:36:28.245Z,95207.47
2019-02-10T13:38:59.816Z,95198.28
2019-02-10T13:41:38.445Z,95199.74
2019-02-10T13:44:09.889Z,95201.41
2019-02-10T13:46:41.146Z,95198.45
2019-02-10T13:49:12.244Z,95191.11
2019-02-10T13:51:43.246Z,95197.67
2019-02-10T13:54:14.518Z,95195.69
2019-02-10T13:56:45.601Z,95190.96
2019-02-10T13:59:16.913Z,95191.93
2019-02-10T14:01:47.912Z,95190.47
2019-02-10T14:04:19.468Z,95184.23
2019-02-10T14:06:50.740Z,95182.59
2019-02-10T14:09:22.066Z,95180.30
2019-02-10T14:11:53.473Z,95176.66
2019-02-10T14:14:24.920Z,95165.85
2019-02-10T14:16:56.255Z,95168.12
2019-02-10T14:19:27.449Z,95164.05
2019-02-10T14:21:58.700Z,95155.38
2019-02-10T14:24:29.981Z,95152.04
2019-02-10T14:27:01.289Z,95153.02
2019-02-10T14:29:32.738Z,95150.34
2019-02-10T14:32:04.197Z,95153.34
2019-02-10T14:34:35.483Z,95140.05
2019-02-10T14:37:06.834Z,95140.05
2019-02-10T14:39:38.195Z,95144.48
2019-02-10T14:42:09.410Z,95148.04
2019-02-10T14:44:40.658Z,95138.80
2019-02-10T14:47:11.997Z,95140.23
2019-02-10T14:49:43.236Z,95144.80
2019-02-10T14:52:14.403Z,95136.67
2019-02-10T14:54:45.430Z,95133.42
2019-02-10T14:57:16.432Z,95130.94
2019-02-10T14:59:47.361Z,95130.48
2019-02-10T15:02:18.345Z,95131.25
2019-02-10T15:04:49.818Z,95130.63
2019-02-10T15:07:25.307Z,95125.84
2019-02-10T15:09:53.540Z,95126.50
2019-02-10T15:12:24.950Z,95127.14
2019-02-10T15:14:56.431Z,95129.80
2019-02-10T15:17:27.850Z,95125.88
2019-02-10T15:19:59.134Z,95124.61
2019-02-10T15:22:30.419Z,95125.95
2019-02-10T15:25:01.493Z,95124.97
2019-02-10T15:27:32.688Z,95124.99
2019-02-10T15:30:03.978Z,95128.30
2019-02-10T15:32:35.510Z,95127.62
2019-02-10T15:35:07.083Z,95128.62
2019-02-10T15:37:38.392Z,95131.88
2019-02-10T15:40:10.085Z,95120.60
2019-02-10T15:42:41.670Z,95117.62
2019-02-10T15:45:12.752Z,95115.34
2019-02-10T15:47:43.987Z,95117.95
2019-02-10T15:50:15.683Z,95117.78
2019-02-10T15:52:47.007Z,95126.59
2019-02-10T15:55:18.326Z,95129.86
2019-02-10T15:57:49.801Z,95127.86
2019-02-10T16:00:22.904Z,95133.27
2019-02-10T16:02:54.224Z,95124.42
2019-02-10T16:05:25.535Z,95121.23
2019-02-10T16:07:56.868Z,95122.17
2019-02-10T16:10:28.203Z,95127.84
2019-02-10T16:12:59.614Z,95128.93
2019-02-10T16:15:30.852Z,95120.96
2019-02-10T16:18:02.370Z,95122.56
2019-02-10T16:20:33.434Z,95118.21
2019-02-10T16:23:04.741Z,95125.03
2019-02-10T16:25:36.038Z,95117.79
2019-02-10T16:28:07.368Z,95123.75
2019-02-10T16:30:38.610Z,95117.47
2019-02-10T16:33:09.871Z,95116.97
2019-02-10T16:35:41.045Z,95111.69
2019-02-10T16:38:12.405Z,95118.38
2019-02-10T16:40:43.663Z,95118.57
2019-02-10T16:43:14.872Z,95115.60
2019-02-10T16:45:46.623Z,95122.25
2019-02-10T16:48:18.422Z,95120.84
2019-02-10T16:50:49.725Z,95119.52
2019-02-10T16:53:21.044Z,95113.66
2019-02-10T16:55:52.590Z,95117.00
2019-02-10T16:58:23.896Z,95112.40
2019-02-10T17:00:55.371Z,95109.22
2019-02-10T17:03:26.527Z,95102.16
2019-02-10T17:05:58.231Z,95107.23
2019-02-10T17:08:29.455Z,95104.91
2019-02-10T17:11:00.911Z,95101.20
2019-02-10T17:13:33.001Z,95104.23
2019-02-10T17:16:05.375Z,95099.90
2019-02-10T17:18:36.999Z,95104.41
2019-02-10T17:21:08.617Z,95095.62
2019-02-10T17:23:40.154Z,95097.80
2019-02-10T17:26:12.802Z,95098.23
2019-02-10T17:28:44.205Z,95094.33
2019-02-10T17:31:15.439Z,95099.14
2019-02-10T17:33:46.669Z,95093.94
2019-02-10T17:36:18.145Z,95096.30
2019-02-10T17:38:49.884Z,95099.45
2019-02-10T17:41:25.804Z,95094.69
2019-02-10T17:43:57.728Z,95095.19
2019-02-10T17:46:29.306Z,95087.97
2019-02-10T17:49:00.764Z,95088.52
2019-02-10T17:51:32.506Z,95089.61
2019-02-10T17:54:04.103Z,95085.02
2019-02-10T17:56:35.676Z,95073.88
2019-02-10T17:59:07.272Z,95083.67
2019-02-10T18:01:38.753Z,95089.69
2019-02-10T18:04:10.122Z,95084.17
2019-02-10T18:06:41.813Z,95082.61
2019-02-10T18:09:13.174Z,95085.28
2019-02-10T18:11:44.796Z,95090.36
2019-02-10T18:14:41.030Z,95085.58
2019-02-10T18:17:49.965Z,95084.35
2019-02-10T18:20:28.717Z,95079.34
2019-02-10T18:23:17.843Z,95090.91
2019-02-10T18:26:20.428Z,95093.29
2019-02-10T18:29:13.555Z,95081.34
2019-02-10T18:32:01.901Z,95083.45
2019-02-10T18:34:58.162Z,95075.20
2019-02-10T18:37:43.009Z,95076.13
2019-02-10T18:40:39.665Z,95077.27
2019-02-10T18:43:22.806Z,95072.07
2019-02-10T18:46:18.671Z,95069.81
2019-02-10T18:49:00.886Z,95069.13
2019-02-10T18:51:43.029Z,95058.78
2019-02-10T18:54:37.336Z,95061.17
2019-02-10T18:57:18.311Z,95063.59
2019-02-10T19:00:17.987Z,95070.94
2019-02-10T19:02:59.979Z,95069.95
2019-02-10T19:05:56.560Z,95070.40
2019-02-10T19:08:39.341Z,95075.53
2019-02-10T19:11:32.519Z,95067.34
2019-02-10T19:14:25.826Z,95076.20
2019-02-10T19:17:07.696Z,95082.92
2019-02-10T19:20:06.895Z,95081.88
2019-02-10T19:23:00.429Z,95079.81
2019-02-10T19:25:51.133Z,95073.33
2019-02-10T19:28:35.176Z,95082.75
2019-02-10T19:31:13.319Z,95079.64
2019-02-10T19:34:02.943Z,95071.94
2019-02-10T19:36:52.169Z,95074.06
2019-02-10T19:39:59.133Z,95065.98
2019-02-10T19:42:48.386Z,95076.22
2019-02-10T19:45:46.535Z,95070.55
2019-02-10T19:48:37.153Z,95071.94
2019-02-10T19:51:27.369Z,95076.89
2019-02-10T19:54:13.368Z,95067.48
2019-02-10T19:57:09.680Z,95062.20
2019-02-10T20:00:09.282Z,95052.69
2019-02-10T20:02:59.191Z,95049.67
2019-02-10T20:06:02.357Z,95046.11
2019-02-10T20:08:44.351Z,95050.03
2019-02-10T20:11:41.102Z,95040.48
2019-02-10T20:14:31.703Z,95034.47
2019-02-10T20:17:19.334Z,95039.80
2019-02-10T20:20:08.174Z,95042.36
2019-02-10T20:23:04.544Z,95034.88
2019-02-10T20:25:54.934Z,95038.80
2019-02-10T20:28:44.184Z,95046.20
2019-02-10T20:31:28.258Z,95046.03
2019-02-10T20:34:18.634Z,95029.98
2019-02-10T20:37:12.241Z,95040.91
2019-02-10T20:39:58.717Z,95029.31
2019-02-10T20:42:46.674Z,95033.31
2019-02-10T20:45:40.137Z,95035.92
2019-02-10T20:48:36.701Z,95037.13
2019-02-10T20:51:20.239Z,95028.25
2019-02-10T20:54:10.036Z,95021.72
2019-02-10T20:56:48.376Z,95021.44
2019-02-10T20:59:41.322Z,95016.68
2019-02-10T21:02:31.852Z,95013.65
2019-02-10T21:05:16.771Z,95012.55
2019-02-10T21:08:13.336Z,95015.56
2019-02-10T21:11:03.835Z,95005.65
2019-02-10T21:13:50.672Z,95000.50
2019-02-10T21:16:59.149Z,94999.17
2019-02-10T21:20:02.270Z,94999.55
2019-02-10T21:22:46.200Z,94987.73
2019-02-10T21:25:35.774Z,94980.58
2019-02-10T21:28:25.014Z,94982.30
2019-02-10T21:31:14.179Z,94979.69
2019-02-10T21:33:52.384Z,94983.03
2019-02-10T21:36:44.869Z,94977.84
2019-02-10T21:39:38.153Z,94978.64
2019-02-10T21:42:29.079Z,94976.86
2019-02-10T21:45:15.902Z,94966.58
2019-02-10T21:47:54.724Z,94960.31
2019-02-10T21:50:26.380Z,94961.59
2019-02-10T21:52:57.866Z,94959.59
2019-02-10T21:55:29.518Z,94952.61
2019-02-10T21:58:00.908Z,94954.92
2019-02-10T22:00:32.487Z,94941.17
2019-02-10T22:03:04.086Z,94944.23
2019-02-10T22:05:35.359Z,94942.34
2019-02-10T22:08:06.998Z,94944.34
2019-02-10T22:10:38.783Z,94937.05
2019-02-10T22:13:10.425Z,94937.19
2019-02-10T22:15:42.078Z,94929.77
2019-02-10T22:18:13.736Z,94932.95
2019-02-10T22:20:45.263Z,94934.98
2019-02-10T22:23:16.856Z,94930.95
2019-02-10T22:25:48.487Z,94927.52
2019-02-10T22:28:19.809Z,94924.35
2019-02-10T22:30:51.146Z,94922.51
2019-02-10T22:33:22.803Z,94913.20
2019-02-10T22:35:54.086Z,94920.14
2019-02-10T22:38:25.751Z,94928.00
2019-02-10T22:40:57.261Z,94933.69
2019-02-10T22:43:28.865Z,94935.34
2019-02-10T22:46:00.321Z,94919.13
2019-02-10T22:48:31.644Z,94921.28
2019-02-10T22:51:02.856Z,94919.57
2019-02-10T22:53:34.454Z,94912.23
2019-02-10T22:56:06.123Z,94921.77
2019-02-10T22:58:37.781Z,94918.06
2019-02-10T23:01:09.658Z,94918.06
2019-02-10T23:03:41.229Z,94905.80
2019-02-10T23:06:12.845Z,94904.16
2019-02-10T23:08:44.317Z,94901.50
2019-02-10T23:11:15.634Z,94889.60
2019-02-10T23:13:47.003Z,94897.25
2019-02-10T23:16:18.378Z,94903.42
2019-02-10T23:18:49.601Z,94905.83
2019-02-10T23:21:20.842Z,94909.30
2019-02-10T23:23:52.046Z,94905.55
2019-02-10T23:26:23.617Z,94917.14
2019-02-10T23:28:54.854Z,94906.41
2019-02-10T23:31:26.134Z,94887.69
2019-02-10T23:33:57.696Z,94897.25
2019-02-10T23:36:29.429Z,94888.64
2019-02-10T23:39:01.026Z,94881.59
2019-02-10T23:41:34.204Z,94874.63
2019-02-10T23:44:05.692Z,94873.53
2019-02-10T23:46:37.277Z,94884.12
2019-02-10T23:49:08.852Z,94879.98
2019-02-10T23:51:40.357Z,94886.02
2019-02-10T23:54:11.952Z,94900.00
2019-02-10T23:56:47.228Z,94904.56
2019-02-10T23:59:16.259Z,94916.09
